createdAt,value
2022-08-30T00:02:00.665Z,23.80
2022-08-30T00:04:34.451Z,23.70
2022-08-30T00:07:03.730Z,23.70
2022-08-30T00:09:32.741Z,23.70
2022-08-30T00:12:03.618Z,23.70
2022-08-30T00:14:30.559Z,23.70
2022-08-30T00:16:59.473Z,23.60
2022-08-30T00:19:26.349Z,23.70
2022-08-30T00:21:56.166Z,23.60
2022-08-30T00:24:23.088Z,23.60
2022-08-30T00:26:49.945Z,23.60
2022-08-30T00:29:16.831Z,23.60
2022-08-30T00:31:45.576Z,23.60
2022-08-30T00:34:12.651Z,23.50
2022-08-30T00:36:39.527Z,23.50
2022-08-30T00:39:06.799Z,23.60
2022-08-30T00:41:33.851Z,23.60
2022-08-30T00:44:01.004Z,23.50
2022-08-30T00:46:30.377Z,23.50
2022-08-30T00:49:01.743Z,23.60
2022-08-30T00:51:28.601Z,23.60
2022-08-30T00:53:59.196Z,23.60
2022-08-30T00:56:30.061Z,23.50
2022-08-30T00:59:01.871Z,23.40
2022-08-30T01:01:30.406Z,23.40
2022-08-30T01:04:06.061Z,23.40
2022-08-30T01:06:34.130Z,23.40
2022-08-30T01:09:03.305Z,23.40
2022-08-30T01:11:33.157Z,23.40
2022-08-30T01:14:01.061Z,23.30
2022-08-30T01:16:32.206Z,23.40
2022-08-30T01:19:00.276Z,23.30
2022-08-30T01:21:43.557Z,23.30
2022-08-30T01:24:10.645Z,23.30
2022-08-30T01:26:40.868Z,23.30
2022-08-30T01:29:13.690Z,23.30
2022-08-30T01:31:40.991Z,23.30
2022-08-30T01:34:09.043Z,23.30
2022-08-30T01:36:37.713Z,23.30
2022-08-30T01:39:16.256Z,23.30
2022-08-30T01:41:43.622Z,23.20
2022-08-30T01:44:12.191Z,23.20
2022-08-30T01:46:43.058Z,23.20
2022-08-30T01:49:14.257Z,23.30
2022-08-30T01:51:42.133Z,23.30
2022-08-30T01:54:09.888Z,23.30
2022-08-30T01:56:36.810Z,23.30
2022-08-30T01:59:03.871Z,23.20
2022-08-30T02:01:33.352Z,23.10
2022-08-30T02:04:00.765Z,23.20
2022-08-30T02:06:28.386Z,23.20
2022-08-30T02:08:55.328Z,23.20
2022-08-30T02:11:22.469Z,23.20
2022-08-30T02:13:53.064Z,23.20
2022-08-30T02:16:23.988Z,23.20
2022-08-30T02:18:54.420Z,23.10
2022-08-30T02:21:22.566Z,23.20
2022-08-30T02:23:52.923Z,23.10
2022-08-30T02:26:20.508Z,23.10
2022-08-30T02:28:49.875Z,23.00
2022-08-30T02:31:20.471Z,23.00
2022-08-30T02:33:50.719Z,23.00
2022-08-30T02:36:18.983Z,22.90
2022-08-30T02:38:46.556Z,22.90
2022-08-30T02:41:16.369Z,22.90
2022-08-30T02:43:45.553Z,22.90
2022-08-30T02:46:12.642Z,22.90
2022-08-30T02:48:39.582Z,22.90
2022-08-30T02:51:10.574Z,22.80
2022-08-30T02:53:42.249Z,22.80
2022-08-30T02:56:12.124Z,22.70
2022-08-30T02:58:40.021Z,22.60
2022-08-30T03:01:07.081Z,22.70
2022-08-30T03:03:34.202Z,22.70
2022-08-30T03:06:03.315Z,22.70
2022-08-30T03:08:31.441Z,22.60
2022-08-30T03:11:02.711Z,22.60
2022-08-30T03:13:29.814Z,22.50
2022-08-30T03:15:58.201Z,22.50
2022-08-30T03:18:30.719Z,22.50
2022-08-30T03:20:57.591Z,22.50
2022-08-30T03:23:24.701Z,22.50
2022-08-30T03:25:53.686Z,22.50
2022-08-30T03:28:20.882Z,22.50
2022-08-30T03:30:48.287Z,22.50
2022-08-30T03:33:15.647Z,22.40
2022-08-30T03:35:42.925Z,22.40
2022-08-30T03:38:09.791Z,22.40
2022-08-30T03:40:37.167Z,22.30
2022-08-30T03:43:05.463Z,22.30
2022-08-30T03:45:32.628Z,22.20
2022-08-30T03:47:59.741Z,22.20
2022-08-30T03:50:27.228Z,22.20
2022-08-30T03:52:54.085Z,22.20
2022-08-30T03:55:25.001Z,22.30
2022-08-30T03:57:52.066Z,22.20
2022-08-30T04:00:21.123Z,22.20
2022-08-30T04:02:48.161Z,22.20
2022-08-30T04:05:18.574Z,22.20
2022-08-30T04:07:46.010Z,22.20
2022-08-30T04:10:14.027Z,22.20
2022-08-30T04:12:46.155Z,22.20
2022-08-30T04:15:17.779Z,22.20
2022-08-30T04:17:50.001Z,22.20
2022-08-30T04:20:17.513Z,22.10
2022-08-30T04:22:44.340Z,22.10
2022-08-30T04:25:15.366Z,22.10
2022-08-30T04:27:43.493Z,22.10
2022-08-30T04:30:15.243Z,22.10
2022-08-30T04:32:43.093Z,22.10
2022-08-30T04:35:11.417Z,22.10
2022-08-30T04:37:39.319Z,22.20
2022-08-30T04:40:07.539Z,22.20
2022-08-30T04:42:38.072Z,22.20
2022-08-30T04:45:11.466Z,22.20
2022-08-30T04:47:39.638Z,22.10
2022-08-30T04:50:08.017Z,22.10
2022-08-30T04:52:34.967Z,22.10
2022-08-30T04:55:02.055Z,22.00
2022-08-30T04:57:29.504Z,22.10
2022-08-30T04:59:59.802Z,22.00
2022-08-30T05:02:29.287Z,22.00
2022-08-30T05:05:15.233Z,22.00
2022-08-30T05:07:42.073Z,22.00
2022-08-30T05:10:11.917Z,22.00
2022-08-30T05:12:39.705Z,22.00
2022-08-30T05:15:07.092Z,21.90
2022-08-30T05:17:34.061Z,21.90
2022-08-30T05:20:02.317Z,21.90
2022-08-30T05:22:31.385Z,21.90
2022-08-30T05:24:59.383Z,21.80
2022-08-30T05:27:26.854Z,21.80
2022-08-30T05:29:59.135Z,21.70
2022-08-30T05:32:27.232Z,21.70
2022-08-30T05:34:54.382Z,21.70
2022-08-30T05:37:21.231Z,21.60
2022-08-30T05:39:51.137Z,21.70
2022-08-30T05:42:19.066Z,21.70
2022-08-30T05:44:52.288Z,21.60
2022-08-30T05:47:24.812Z,21.60
2022-08-30T05:49:51.911Z,21.60
2022-08-30T05:52:19.930Z,21.60
2022-08-30T05:54:55.234Z,21.60
2022-08-30T05:57:22.665Z,21.60
2022-08-30T05:59:50.750Z,21.60
2022-08-30T06:02:19.914Z,21.60
2022-08-30T06:04:46.787Z,21.70
2022-08-30T06:07:15.744Z,21.80
2022-08-30T06:09:44.478Z,21.80
2022-08-30T06:12:13.079Z,21.80
2022-08-30T06:14:39.861Z,21.80
2022-08-30T06:17:10.753Z,21.80
2022-08-30T06:19:40.007Z,21.80
2022-08-30T06:22:11.284Z,21.80
2022-08-30T06:24:57.024Z,21.90
2022-08-30T06:27:24.974Z,21.80
2022-08-30T06:29:58.378Z,21.80
2022-08-30T06:32:25.498Z,21.80
2022-08-30T06:34:54.882Z,21.80
2022-08-30T06:37:29.412Z,21.90
2022-08-30T06:39:58.372Z,21.90
2022-08-30T06:42:31.771Z,22.00
2022-08-30T06:45:10.877Z,22.00
2022-08-30T06:47:41.533Z,22.00
2022-08-30T06:50:12.283Z,22.10
2022-08-30T06:52:40.913Z,22.10
2022-08-30T07:10:46.534Z,22.10
2022-08-30T07:13:14.865Z,21.90
2022-08-30T07:15:45.694Z,22.00
2022-08-30T07:18:33.696Z,22.00
2022-08-30T07:21:07.621Z,22.10
2022-08-30T07:23:35.373Z,22.10
2022-08-30T07:26:14.533Z,22.20
2022-08-30T07:28:44.706Z,22.30
2022-08-30T07:31:17.472Z,22.30
2022-08-30T07:33:50.140Z,22.30
2022-08-30T07:36:18.272Z,22.40
2022-08-30T07:38:47.389Z,22.40
2022-08-30T07:41:40.443Z,22.50
2022-08-30T07:44:11.688Z,22.50
2022-08-30T07:46:39.738Z,22.50
2022-08-30T07:49:11.303Z,22.60
2022-08-30T07:51:40.156Z,22.60
2022-08-30T07:54:09.187Z,22.60
2022-08-30T07:56:36.582Z,22.60
2022-08-30T07:59:04.298Z,22.60
2022-08-30T08:01:31.502Z,22.70
2022-08-30T08:03:58.474Z,22.70
2022-08-30T08:06:25.556Z,22.70
2022-08-30T08:08:56.408Z,22.70
2022-08-30T08:11:29.326Z,22.70
2022-08-30T08:13:59.090Z,22.70
2022-08-30T08:16:27.981Z,22.70
2022-08-30T08:18:56.581Z,22.70
2022-08-30T08:21:25.732Z,22.70
2022-08-30T08:23:55.629Z,22.70
2022-08-30T08:26:22.833Z,22.70
2022-08-30T08:28:49.990Z,22.80
2022-08-30T08:31:27.357Z,22.80
2022-08-30T08:36:33.851Z,22.90
2022-08-30T08:39:01.439Z,22.90
2022-08-30T08:41:47.266Z,22.90
2022-08-30T08:44:33.813Z,22.90
2022-08-30T08:47:26.642Z,22.90
2022-08-30T08:50:00.697Z,22.90
2022-08-30T08:53:07.892Z,23.00
2022-08-30T08:55:40.378Z,22.90
2022-08-30T08:58:07.533Z,23.00
2022-08-30T09:00:40.526Z,23.00
2022-08-30T09:03:10.531Z,23.10
2022-08-30T09:05:41.524Z,23.10
2022-08-30T09:08:14.609Z,23.10
2022-08-30T09:11:06.721Z,23.20
2022-08-30T09:13:33.624Z,23.20
2022-08-30T09:16:01.145Z,23.20
2022-08-30T09:18:45.432Z,23.30
2022-08-30T09:21:24.013Z,23.40
2022-08-30T09:24:01.173Z,23.40
2022-08-30T09:26:38.393Z,23.30
2022-08-30T09:29:16.144Z,23.40
2022-08-30T09:32:10.076Z,23.40
2022-08-30T09:34:43.687Z,23.40
2022-08-30T09:37:29.023Z,23.40
2022-08-30T09:39:58.814Z,23.40
2022-08-30T09:42:29.291Z,23.50
2022-08-30T09:45:10.600Z,23.40
2022-08-30T09:47:43.227Z,23.50
2022-08-30T09:50:14.096Z,23.50
2022-08-30T09:53:12.501Z,23.40
2022-08-30T09:55:51.634Z,23.50
2022-08-30T09:58:41.422Z,23.40
2022-08-30T10:01:24.402Z,23.50
2022-08-30T10:03:56.987Z,23.50
2022-08-30T10:06:50.598Z,23.60
2022-08-30T10:09:34.028Z,23.70
2022-08-30T10:12:15.523Z,23.80
2022-08-30T10:14:48.544Z,23.80
2022-08-30T10:17:39.263Z,23.90
2022-08-30T10:20:38.372Z,23.80
2022-08-30T10:23:20.424Z,24.00
2022-08-30T10:25:54.327Z,24.00
2022-08-30T10:28:44.674Z,24.00
2022-08-30T10:31:47.095Z,24.00
2022-08-30T10:34:28.711Z,24.00
2022-08-30T10:37:03.219Z,24.00
2022-08-30T10:39:39.147Z,24.00
2022-08-30T10:42:15.348Z,24.10
2022-08-30T10:44:46.511Z,24.10
2022-08-30T10:47:23.171Z,24.20
2022-08-30T10:49:58.056Z,24.20
2022-08-30T10:53:12.745Z,24.20
2022-08-30T10:55:49.988Z,24.30
2022-08-30T10:58:18.608Z,24.30
2022-08-30T11:01:00.274Z,24.30
2022-08-30T11:03:45.762Z,24.40
2022-08-30T11:06:25.049Z,24.40
2022-08-30T11:09:10.712Z,24.40
2022-08-30T11:11:46.218Z,24.40
2022-08-30T11:14:17.649Z,24.40
2022-08-30T11:16:48.568Z,24.50
2022-08-30T11:19:32.224Z,24.60
2022-08-30T11:22:33.318Z,24.60
2022-08-30T11:25:38.701Z,24.70
2022-08-30T11:28:09.189Z,24.70
2022-08-30T11:30:39.067Z,24.80
2022-08-30T11:33:11.937Z,24.80
2022-08-30T11:35:52.479Z,24.80
2022-08-30T11:38:28.519Z,24.90
2022-08-30T11:40:59.085Z,24.90
2022-08-30T11:43:36.821Z,24.90
2022-08-30T11:46:26.843Z,25.00
2022-08-30T11:48:55.531Z,25.00
2022-08-30T11:51:26.156Z,25.00
2022-08-30T11:54:32.742Z,25.20
2022-08-30T11:57:06.314Z,25.20
2022-08-30T11:59:59.182Z,25.20
2022-08-30T12:02:59.125Z,25.30
2022-08-30T12:05:38.766Z,25.30
2022-08-30T12:08:36.219Z,25.40
2022-08-30T12:11:34.600Z,25.40
2022-08-30T12:14:02.887Z,25.50
2022-08-30T12:17:03.515Z,25.60
2022-08-30T12:19:32.314Z,25.60
2022-08-30T12:22:07.175Z,25.60
2022-08-30T12:24:44.561Z,25.70
2022-08-30T12:27:32.540Z,25.80
2022-08-30T12:30:08.850Z,25.80
2022-08-30T12:32:50.577Z,25.80
2022-08-30T12:35:25.413Z,25.90
2022-08-30T12:38:06.019Z,25.90
2022-08-30T12:40:35.764Z,25.90
2022-08-30T12:43:06.258Z,25.90
2022-08-30T12:45:43.027Z,26.00
2022-08-30T12:48:16.054Z,26.00
2022-08-30T12:50:56.457Z,26.10
2022-08-30T12:53:34.252Z,26.20
2022-08-30T12:56:13.447Z,26.30
2022-08-30T12:58:50.143Z,26.30
2022-08-30T13:01:28.378Z,26.30
2022-08-30T13:03:57.508Z,26.40
2022-08-30T13:06:48.986Z,26.40
2022-08-30T13:09:46.511Z,26.40
2022-08-30T13:12:24.725Z,26.40
2022-08-30T13:15:08.610Z,26.50
2022-08-30T13:17:35.534Z,26.60
2022-08-30T13:20:12.531Z,26.60
2022-08-30T13:23:12.612Z,26.70
2022-08-30T13:25:41.402Z,26.80
2022-08-30T13:39:52.032Z,26.80
2022-08-30T13:42:35.736Z,26.90
2022-08-30T13:45:03.162Z,26.90
2022-08-30T13:47:34.678Z,27.00
2022-08-30T13:50:03.528Z,27.00
2022-08-30T13:52:32.943Z,27.00
2022-08-30T13:55:01.788Z,27.00
2022-08-30T14:00:23.456Z,27.10
2022-08-30T14:03:00.070Z,27.10
2022-08-30T14:06:15.843Z,27.20
2022-08-30T14:08:48.884Z,27.20
2022-08-30T14:11:23.634Z,27.20
2022-08-30T14:16:45.457Z,27.30
2022-08-30T14:19:17.872Z,27.30
2022-08-30T14:21:48.881Z,27.30
2022-08-30T14:24:16.567Z,27.30
2022-08-30T14:26:51.654Z,27.30
2022-08-30T14:29:31.285Z,27.30
2022-08-30T14:32:00.695Z,27.30
2022-08-30T14:34:27.764Z,27.40
2022-08-30T14:36:57.377Z,27.40
2022-08-30T14:39:26.635Z,27.50
2022-08-30T14:41:55.711Z,27.50
2022-08-30T14:44:24.986Z,27.50
2022-08-30T14:46:53.020Z,27.60
2022-08-30T14:49:21.410Z,27.70
2022-08-30T14:51:49.146Z,27.70
2022-08-30T14:54:16.505Z,27.70
2022-08-30T14:56:45.575Z,27.80
2022-08-30T14:59:13.532Z,27.70
2022-08-30T15:01:45.678Z,27.70
2022-08-30T15:04:14.593Z,27.70
2022-08-30T15:06:43.496Z,27.80
2022-08-30T15:09:13.926Z,27.90
2022-08-30T15:11:47.034Z,27.90
2022-08-30T15:14:16.319Z,28.00
2022-08-30T15:16:43.872Z,27.90
2022-08-30T15:19:13.216Z,28.00
2022-08-30T15:21:48.489Z,28.00
2022-08-30T15:24:24.752Z,27.90
2022-08-30T15:27:07.063Z,27.90
2022-08-30T15:29:35.597Z,27.90
2022-08-30T15:32:09.938Z,28.00
2022-08-30T15:34:36.781Z,28.00
2022-08-30T15:37:08.557Z,28.00
2022-08-30T15:39:35.430Z,28.00
2022-08-30T15:42:04.025Z,27.90
2022-08-30T15:44:34.420Z,27.90
2022-08-30T15:47:01.650Z,27.90
2022-08-30T15:49:28.623Z,28.00
2022-08-30T15:52:02.331Z,28.10
2022-08-30T15:54:29.711Z,28.10
2022-08-30T15:56:59.965Z,28.20
2022-08-30T15:59:29.854Z,28.10
2022-08-30T16:01:57.696Z,28.10
2022-08-30T16:04:24.868Z,28.10
2022-08-30T16:06:57.595Z,28.20
2022-08-30T16:09:24.981Z,28.10
2022-08-30T16:11:53.172Z,28.20
2022-08-30T16:14:20.270Z,28.20
2022-08-30T16:16:49.523Z,28.20
2022-08-30T16:19:17.657Z,28.20
2022-08-30T16:21:47.574Z,28.40
2022-08-30T16:24:18.224Z,28.40
2022-08-30T16:26:53.385Z,28.40
2022-08-30T16:29:21.008Z,28.40
2022-08-30T16:31:49.908Z,28.40
2022-08-30T16:34:21.040Z,28.40
2022-08-30T16:36:48.578Z,28.50
2022-08-30T16:39:18.141Z,28.50
2022-08-30T16:41:48.557Z,28.50
2022-08-30T16:44:21.615Z,28.50
2022-08-30T16:46:53.740Z,28.50
2022-08-30T16:49:22.622Z,28.50
2022-08-30T16:51:50.652Z,28.50
2022-08-30T16:54:17.779Z,28.40
2022-08-30T16:56:45.705Z,28.50
2022-08-30T16:59:13.757Z,28.40
2022-08-30T17:01:44.895Z,28.30
2022-08-30T17:07:05.265Z,28.40
2022-08-30T17:09:35.605Z,28.30
2022-08-30T17:12:03.869Z,28.40
2022-08-30T17:14:30.833Z,28.40
2022-08-30T17:17:00.564Z,28.30
2022-08-30T17:19:28.715Z,28.40
2022-08-30T17:21:56.359Z,28.40
2022-08-30T17:24:26.555Z,28.40
2022-08-30T17:26:58.551Z,28.40
2022-08-30T17:29:25.601Z,28.40
2022-08-30T17:31:55.799Z,28.30
2022-08-30T17:34:26.467Z,28.30
2022-08-30T17:36:55.723Z,28.30
2022-08-30T17:39:25.284Z,28.30
2022-08-30T17:41:52.848Z,28.30
2022-08-30T17:44:29.583Z,28.20
2022-08-30T17:47:01.842Z,28.30
2022-08-30T17:49:29.324Z,28.20
2022-08-30T17:51:57.286Z,28.20
2022-08-30T17:54:31.960Z,28.10
2022-08-30T17:56:59.887Z,28.10
2022-08-30T17:59:29.193Z,28.10
2022-08-30T18:02:02.504Z,28.10
2022-08-30T18:04:31.063Z,28.20
2022-08-30T18:07:00.304Z,28.10
2022-08-30T18:09:30.547Z,28.10
2022-08-30T18:12:02.142Z,28.10
2022-08-30T18:14:31.354Z,28.10
2022-08-30T18:16:58.901Z,28.10
2022-08-30T18:19:30.849Z,28.00
2022-08-30T18:24:43.951Z,28.00
2022-08-30T18:27:17.512Z,28.00
2022-08-30T18:29:47.127Z,27.90
2022-08-30T18:32:15.653Z,27.90
2022-08-30T18:34:43.050Z,28.00
2022-08-30T18:37:14.438Z,27.90
2022-08-30T18:39:50.340Z,27.80
2022-08-30T18:42:18.321Z,27.80
2022-08-30T18:44:49.116Z,27.80
2022-08-30T18:47:16.051Z,27.80
2022-08-30T18:49:46.807Z,27.70
2022-08-30T18:52:16.405Z,27.80
2022-08-30T18:54:52.761Z,27.70
2022-08-30T18:57:22.120Z,27.70
2022-08-30T18:59:49.999Z,27.70
2022-08-30T19:02:17.603Z,27.60
2022-08-30T19:04:48.084Z,27.60
2022-08-30T19:07:18.033Z,27.60
2022-08-30T19:09:45.928Z,27.50
2022-08-30T19:12:17.905Z,27.50
2022-08-30T19:14:47.323Z,27.50
2022-08-30T19:17:18.574Z,27.40
2022-08-30T19:19:49.153Z,27.30
2022-08-30T19:22:22.016Z,27.40
2022-08-30T19:24:50.949Z,27.40
2022-08-30T19:27:37.003Z,27.40
2022-08-30T19:30:18.642Z,27.40
2022-08-30T19:32:51.353Z,27.20
2022-08-30T19:35:19.610Z,27.30
2022-08-30T19:37:46.551Z,27.30
2022-08-30T19:40:17.306Z,27.10
2022-08-30T19:42:46.089Z,27.10
2022-08-30T19:45:23.678Z,27.10
2022-08-30T19:47:51.408Z,27.10
2022-08-30T19:50:19.361Z,27.10
2022-08-30T19:52:52.688Z,27.10
2022-08-30T19:55:23.933Z,27.00
2022-08-30T19:57:56.155Z,27.00
2022-08-30T20:00:25.984Z,26.90
2022-08-30T20:02:52.827Z,26.90
2022-08-30T20:05:23.027Z,26.90
2022-08-30T20:07:51.432Z,26.80
2022-08-30T20:10:26.003Z,26.80
2022-08-30T20:12:54.589Z,26.80
2022-08-30T20:15:23.133Z,26.80
2022-08-30T20:18:14.444Z,26.80
2022-08-30T20:20:40.215Z,26.80
2022-08-30T20:23:07.897Z,26.70
2022-08-30T20:24:23.330Z,28.30
2022-08-30T20:25:37.947Z,26.70
2022-08-30T20:28:08.279Z,26.70
2022-08-30T20:30:35.995Z,26.70
2022-08-30T20:33:07.101Z,26.70
2022-08-30T20:35:39.976Z,26.70
2022-08-30T20:38:20.712Z,26.60
2022-08-30T20:40:53.942Z,26.50
2022-08-30T20:43:24.333Z,26.40
2022-08-30T20:45:51.490Z,26.40
2022-08-30T20:48:19.520Z,26.40
2022-08-30T20:50:46.655Z,26.30
2022-08-30T20:53:19.294Z,26.40
2022-08-30T20:55:48.122Z,26.30
2022-08-30T20:58:17.751Z,26.30
2022-08-30T21:00:53.836Z,26.30
2022-08-30T21:03:25.968Z,26.30
2022-08-30T21:05:57.948Z,26.30
2022-08-30T21:08:25.399Z,26.20
2022-08-30T21:10:55.310Z,26.20
2022-08-30T21:13:23.022Z,26.10
2022-08-30T21:16:00.559Z,26.10
2022-08-30T21:18:34.663Z,26.00
2022-08-30T21:21:15.950Z,26.00
2022-08-30T21:23:43.884Z,25.90
2022-08-30T21:26:11.140Z,25.90
2022-08-30T21:28:40.408Z,25.80
2022-08-30T21:31:12.847Z,25.80
2022-08-30T21:33:42.716Z,25.80
2022-08-30T21:36:31.665Z,25.80
2022-08-30T21:39:00.697Z,25.70
2022-08-30T21:41:29.477Z,25.70
2022-08-30T21:43:58.221Z,25.60
2022-08-30T21:46:28.117Z,25.60
2022-08-30T21:48:58.492Z,25.60
2022-08-30T21:51:25.865Z,25.60
2022-08-30T21:53:54.675Z,25.60
2022-08-30T21:56:23.345Z,25.50
2022-08-30T21:58:55.017Z,25.50
2022-08-30T22:01:27.275Z,25.50
2022-08-30T22:03:57.809Z,25.50
2022-08-30T22:06:30.819Z,25.50
2022-08-30T22:09:02.958Z,25.40
2022-08-30T22:11:37.635Z,25.30
2022-08-30T22:14:06.555Z,25.30
2022-08-30T22:16:34.345Z,25.30
2022-08-30T22:19:02.171Z,25.30
2022-08-30T22:21:31.612Z,25.30
2022-08-30T22:23:58.838Z,25.20
2022-08-30T22:26:28.820Z,25.20
2022-08-30T22:28:56.102Z,25.20
2022-08-30T22:31:24.175Z,25.20
2022-08-30T22:33:52.780Z,25.20
2022-08-30T22:36:33.077Z,25.10
2022-08-30T22:39:06.927Z,25.20
2022-08-30T22:41:38.269Z,25.20
2022-08-30T22:44:06.894Z,25.10
2022-08-30T22:46:35.911Z,24.90
2022-08-30T22:49:10.161Z,24.90
2022-08-30T22:51:43.609Z,24.90
2022-08-30T22:54:10.627Z,24.90
2022-08-30T22:56:38.498Z,24.90
2022-08-30T22:59:07.377Z,24.90
2022-08-30T23:01:43.689Z,24.80
2022-08-30T23:04:12.035Z,24.80
2022-08-30T23:06:50.182Z,24.80
2022-08-30T23:09:17.334Z,24.80
2022-08-30T23:11:44.189Z,24.80
2022-08-30T23:14:11.343Z,24.80
2022-08-30T23:16:38.269Z,24.80
2022-08-30T23:19:05.624Z,24.70
2022-08-30T23:21:32.588Z,24.70
2022-08-30T23:24:18.019Z,24.70
2022-08-30T23:27:04.796Z,24.70
2022-08-30T23:29:50.799Z,24.60
2022-08-30T23:32:36.575Z,24.60
2022-08-30T23:35:29.158Z,24.60
2022-08-30T23:38:20.809Z,24.50
2022-08-30T23:41:06.230Z,24.50
2022-08-30T23:43:51.589Z,24.50
2022-08-30T23:46:39.761Z,24.50
2022-08-30T23:49:25.300Z,24.40
2022-08-30T23:52:13.297Z,24.40
2022-08-30T23:55:00.150Z,24.40
2022-08-30T23:57:47.960Z,24.40
